sensor_id;sensor_type;location;lat;lon;timestamp;pressure;altitude;pressure_sealevel;temperature;humidity
16100;BME280;8154;50.830;12.082;2022-08-19T00:01:14;98879.00;;;27.28;47.91
16100;BME280;8154;50.830;12.082;2022-08-19T00:04:01;98886.22;;;27.28;48.07
16100;BME280;8154;50.830;12.082;2022-08-19T00:06:46;98887.84;;;27.29;47.99
16100;BME280;8154;50.830;12.082;2022-08-19T00:09:31;98888.19;;;27.32;48.02
16100;BME280;8154;50.830;12.082;2022-08-19T00:12:15;98886.81;;;27.30;47.86
16100;BME280;8154;50.830;12.082;2022-08-19T00:15:00;98882.25;;;27.30;47.91
16100;BME280;8154;50.830;12.082;2022-08-19T00:17:45;98871.75;;;27.29;47.96
16100;BME280;8154;50.830;12.082;2022-08-19T00:20:29;98859.50;;;27.33;47.76
16100;BME280;8154;50.830;12.082;2022-08-19T00:23:13;98849.47;;;27.28;47.59
16100;BME280;8154;50.830;12.082;2022-08-19T00:25:58;98855.88;;;27.27;48.01
16100;BME280;8154;50.830;12.082;2022-08-19T00:28:43;98852.50;;;27.20;48.27
16100;BME280;8154;50.830;12.082;2022-08-19T00:31:27;98857.03;;;27.20;48.32
16100;BME280;8154;50.830;12.082;2022-08-19T00:34:14;98847.94;;;27.21;48.07
16100;BME280;8154;50.830;12.082;2022-08-19T00:36:58;98840.69;;;27.21;48.15
16100;BME280;8154;50.830;12.082;2022-08-19T00:39:43;98831.38;;;27.24;48.09
16100;BME280;8154;50.830;12.082;2022-08-19T00:42:27;98823.13;;;27.25;47.96
16100;BME280;8154;50.830;12.082;2022-08-19T00:45:18;98827.19;;;27.28;47.90
16100;BME280;8154;50.830;12.082;2022-08-19T00:48:05;98825.81;;;27.25;47.95
16100;BME280;8154;50.830;12.082;2022-08-19T00:50:50;98816.69;;;27.26;47.97
16100;BME280;8154;50.830;12.082;2022-08-19T00:53:36;98802.47;;;27.26;47.81
16100;BME280;8154;50.830;12.082;2022-08-19T00:56:21;98796.84;;;27.27;47.92
16100;BME280;8154;50.830;12.082;2022-08-19T00:59:06;98783.09;;;27.24;48.06
16100;BME280;8154;50.830;12.082;2022-08-19T01:01:53;98787.28;;;27.20;48.09
16100;BME280;8154;50.830;12.082;2022-08-19T01:04:38;98790.31;;;27.23;48.27
16100;BME280;8154;50.830;12.082;2022-08-19T01:07:22;98784.72;;;27.25;48.22
16100;BME280;8154;50.830;12.082;2022-08-19T01:10:10;98775.75;;;27.19;48.36
16100;BME280;8154;50.830;12.082;2022-08-19T01:12:55;98773.06;;;27.19;48.22
16100;BME280;8154;50.830;12.082;2022-08-19T01:15:45;98772.22;;;27.19;48.27
16100;BME280;8154;50.830;12.082;2022-08-19T01:18:32;98768.03;;;27.23;48.22
16100;BME280;8154;50.830;12.082;2022-08-19T01:21:32;98767.47;;;27.21;48.14
16100;BME280;8154;50.830;12.082;2022-08-19T01:24:19;98770.94;;;27.21;48.23
16100;BME280;8154;50.830;12.082;2022-08-19T01:27:05;98767.69;;;27.19;48.41
16100;BME280;8154;50.830;12.082;2022-08-19T01:29:49;98760.91;;;27.17;48.48
16100;BME280;8154;50.830;12.082;2022-08-19T01:32:33;98753.47;;;27.19;48.38
16100;BME280;8154;50.830;12.082;2022-08-19T01:35:18;98760.69;;;27.18;48.25
16100;BME280;8154;50.830;12.082;2022-08-19T01:38:06;98761.50;;;27.19;48.20
16100;BME280;8154;50.830;12.082;2022-08-19T01:40:52;98755.56;;;27.17;48.33
16100;BME280;8154;50.830;12.082;2022-08-19T01:43:36;98755.56;;;27.17;48.38
16100;BME280;8154;50.830;12.082;2022-08-19T01:46:21;98763.25;;;27.13;48.43
16100;BME280;8154;50.830;12.082;2022-08-19T01:49:07;98761.38;;;27.14;48.43
16100;BME280;8154;50.830;12.082;2022-08-19T01:51:53;98771.53;;;27.12;48.57
16100;BME280;8154;50.830;12.082;2022-08-19T01:54:37;98776.09;;;27.11;48.53
16100;BME280;8154;50.830;12.082;2022-08-19T01:57:22;98772.59;;;27.11;48.54
16100;BME280;8154;50.830;12.082;2022-08-19T02:00:10;98775.50;;;27.09;48.95
16100;BME280;8154;50.830;12.082;2022-08-19T02:02:56;98768.84;;;27.12;48.54
16100;BME280;8154;50.830;12.082;2022-08-19T02:05:41;98764.78;;;27.09;48.51
16100;BME280;8154;50.830;12.082;2022-08-19T02:08:26;98765.59;;;27.10;48.48
16100;BME280;8154;50.830;12.082;2022-08-19T02:11:19;98759.66;;;27.08;48.63
16100;BME280;8154;50.830;12.082;2022-08-19T02:14:06;98749.41;;;27.05;48.91
16100;BME280;8154;50.830;12.082;2022-08-19T02:16:51;98741.34;;;27.05;48.51
16100;BME280;8154;50.830;12.082;2022-08-19T02:19:35;98751.03;;;27.06;48.58
16100;BME280;8154;50.830;12.082;2022-08-19T02:22:19;98749.41;;;27.05;48.71
16100;BME280;8154;50.830;12.082;2022-08-19T02:25:04;98743.69;;;27.01;48.79
16100;BME280;8154;50.830;12.082;2022-08-19T02:27:49;98745.09;;;27.04;48.73
16100;BME280;8154;50.830;12.082;2022-08-19T02:30:33;98749.63;;;27.03;48.72
16100;BME280;8154;50.830;12.082;2022-08-19T02:33:17;98755.00;;;27.03;48.66
16100;BME280;8154;50.830;12.082;2022-08-19T02:36:04;98763.03;;;27.03;48.55
16100;BME280;8154;50.830;12.082;2022-08-19T02:38:49;98764.44;;;27.06;48.67
16100;BME280;8154;50.830;12.082;2022-08-19T02:41:34;98779.72;;;27.05;48.88
16100;BME280;8154;50.830;12.082;2022-08-19T02:44:18;98788.34;;;27.07;48.77
16100;BME280;8154;50.830;12.082;2022-08-19T02:47:02;98802.56;;;27.08;48.61
16100;BME280;8154;50.830;12.082;2022-08-19T02:49:47;98811.69;;;27.07;48.57
16100;BME280;8154;50.830;12.082;2022-08-19T02:52:35;98817.03;;;27.07;48.55
16100;BME280;8154;50.830;12.082;2022-08-19T02:55:19;98826.47;;;27.09;48.68
16100;BME280;8154;50.830;12.082;2022-08-19T02:58:04;98824.75;;;27.15;48.53
16100;BME280;8154;50.830;12.082;2022-08-19T03:00:52;98836.28;;;27.15;48.86
16100;BME280;8154;50.830;12.082;2022-08-19T03:03:38;98841.88;;;27.14;48.72
16100;BME280;8154;50.830;12.082;2022-08-19T03:06:22;98842.34;;;27.11;48.68
16100;BME280;8154;50.830;12.082;2022-08-19T03:09:07;98835.00;;;27.06;48.75
16100;BME280;8154;50.830;12.082;2022-08-19T03:11:52;98840.00;;;27.03;48.68
16100;BME280;8154;50.830;12.082;2022-08-19T03:14:37;98843.75;;;27.02;48.87
16100;BME280;8154;50.830;12.082;2022-08-19T03:17:21;98845.38;;;27.03;48.91
16100;BME280;8154;50.830;12.082;2022-08-19T03:20:05;98846.19;;;27.03;48.71
16100;BME280;8154;50.830;12.082;2022-08-19T03:22:50;98842.34;;;26.99;48.74
16100;BME280;8154;50.830;12.082;2022-08-19T03:25:41;98852.03;;;27.00;49.08
16100;BME280;8154;50.830;12.082;2022-08-19T03:28:27;98857.38;;;27.00;48.86
16100;BME280;8154;50.830;12.082;2022-08-19T03:31:13;98859.00;;;27.01;48.98
16100;BME280;8154;50.830;12.082;2022-08-19T03:33:57;98853.88;;;27.00;48.81
16100;BME280;8154;50.830;12.082;2022-08-19T03:36:42;98864.03;;;26.98;49.10
16100;BME280;8154;50.830;12.082;2022-08-19T03:39:26;98870.19;;;26.98;48.81
16100;BME280;8154;50.830;12.082;2022-08-19T03:42:11;98872.66;;;27.00;48.83
16100;BME280;8154;50.830;12.082;2022-08-19T03:44:55;98862.97;;;26.99;48.92
16100;BME280;8154;50.830;12.082;2022-08-19T03:47:40;98857.63;;;26.99;48.75
16100;BME280;8154;50.830;12.082;2022-08-19T03:50:24;98858.69;;;26.98;49.01
16100;BME280;8154;50.830;12.082;2022-08-19T03:53:09;98857.03;;;26.97;48.89
16100;BME280;8154;50.830;12.082;2022-08-19T03:55:55;98862.16;;;26.98;48.87
16100;BME280;8154;50.830;12.082;2022-08-19T03:58:40;98858.69;;;26.98;49.05
16100;BME280;8154;50.830;12.082;2022-08-19T04:01:27;98867.66;;;27.03;48.80
16100;BME280;8154;50.830;12.082;2022-08-19T04:04:11;98873.38;;;27.07;48.76
16100;BME280;8154;50.830;12.082;2022-08-19T04:06:56;98879.75;;;27.06;48.81
16100;BME280;8154;50.830;12.082;2022-08-19T04:09:41;98878.00;;;27.00;48.91
16100;BME280;8154;50.830;12.082;2022-08-19T04:12:25;98878.47;;;26.97;49.26
16100;BME280;8154;50.830;12.082;2022-08-19T04:15:11;98867.97;;;26.95;49.23
16100;BME280;8154;50.830;12.082;2022-08-19T04:17:55;98852.13;;;26.94;49.39
16100;BME280;8154;50.830;12.082;2022-08-19T04:20:42;98855.88;;;26.93;49.39
16100;BME280;8154;50.830;12.082;2022-08-19T04:23:26;98847.22;;;26.91;49.06
16100;BME280;8154;50.830;12.082;2022-08-19T04:26:20;98841.50;;;26.87;48.93
16100;BME280;8154;50.830;12.082;2022-08-19T04:29:08;98841.97;;;26.84;49.44
16100;BME280;8154;50.830;12.082;2022-08-19T04:31:54;98848.84;;;26.80;49.15
16100;BME280;8154;50.830;12.082;2022-08-19T04:34:39;98842.31;;;26.76;49.85
16100;BME280;8154;50.830;12.082;2022-08-19T04:37:24;98844.06;;;26.71;49.94
16100;BME280;8154;50.830;12.082;2022-08-19T04:40:10;98852.09;;;26.71;50.04
16100;BME280;8154;50.830;12.082;2022-08-19T04:43:14;98845.44;;;26.73;49.86
16100;BME280;8154;50.830;12.082;2022-08-19T04:46:07;98853.97;;;26.70;49.87
16100;BME280;8154;50.830;12.082;2022-08-19T04:48:52;98859.91;;;26.72;49.77
16100;BME280;8154;50.830;12.082;2022-08-19T04:51:40;98859.56;;;26.69;49.72
16100;BME280;8154;50.830;12.082;2022-08-19T04:54:25;98862.22;;;26.69;49.66
16100;BME280;8154;50.830;12.082;2022-08-19T04:57:09;98870.16;;;26.75;49.78
16100;BME280;8154;50.830;12.082;2022-08-19T04:59:55;98869.34;;;26.75;49.94
16100;BME280;8154;50.830;12.082;2022-08-19T05:02:40;98865.03;;;26.74;49.83
16100;BME280;8154;50.830;12.082;2022-08-19T05:05:24;98862.00;;;26.70;49.57
16100;BME280;8154;50.830;12.082;2022-08-19T05:08:09;98854.78;;;26.71;49.54
16100;BME280;8154;50.830;12.082;2022-08-19T05:10:53;98853.97;;;26.70;49.65
16100;BME280;8154;50.830;12.082;2022-08-19T05:13:38;98852.69;;;26.73;49.53
16100;BME280;8154;50.830;12.082;2022-08-19T05:16:25;98852.47;;;26.74;49.64
16100;BME280;8154;50.830;12.082;2022-08-19T05:19:10;98851.63;;;26.74;49.68
16100;BME280;8154;50.830;12.082;2022-08-19T05:22:13;98849.78;;;26.74;49.58
16100;BME280;8154;50.830;12.082;2022-08-19T05:25:20;98843.81;;;26.72;49.43
16100;BME280;8154;50.830;12.082;2022-08-19T05:28:04;98847.34;;;26.73;49.82
16100;BME280;8154;50.830;12.082;2022-08-19T05:30:49;98852.47;;;26.74;49.52
16100;BME280;8154;50.830;12.082;2022-08-19T05:33:34;98853.50;;;26.73;49.38
16100;BME280;8154;50.830;12.082;2022-08-19T05:36:19;98858.06;;;26.73;49.69
16100;BME280;8154;50.830;12.082;2022-08-19T05:39:04;98855.38;;;26.73;49.55
16100;BME280;8154;50.830;12.082;2022-08-19T05:41:51;98859.09;;;26.72;49.36
16100;BME280;8154;50.830;12.082;2022-08-19T05:44:41;98858.53;;;26.70;49.52
16100;BME280;8154;50.830;12.082;2022-08-19T05:47:29;98863.41;;;26.73;49.29
16100;BME280;8154;50.830;12.082;2022-08-19T05:50:14;98869.56;;;26.73;49.55
16100;BME280;8154;50.830;12.082;2022-08-19T05:52:59;98880.53;;;26.72;49.80
16100;BME280;8154;50.830;12.082;2022-08-19T05:55:43;98893.25;;;26.76;49.73
16100;BME280;8154;50.830;12.082;2022-08-19T05:58:28;98896.16;;;26.75;49.77
16100;BME280;8154;50.830;12.082;2022-08-19T06:01:15;98903.03;;;26.71;49.90
16100;BME280;8154;50.830;12.082;2022-08-19T06:04:00;98919.13;;;26.71;49.58
16100;BME280;8154;50.830;12.082;2022-08-19T06:06:46;98917.84;;;26.73;49.65
16100;BME280;8154;50.830;12.082;2022-08-19T06:09:30;98927.16;;;26.71;49.53
16100;BME280;8154;50.830;12.082;2022-08-19T06:12:14;98935.81;;;26.73;49.64
16100;BME280;8154;50.830;12.082;2022-08-19T06:15:00;98937.78;;;26.77;49.46
16100;BME280;8154;50.830;12.082;2022-08-19T06:17:44;98932.91;;;26.74;49.58
16100;BME280;8154;50.830;12.082;2022-08-19T06:20:28;98942.78;;;26.74;49.62
16100;BME280;8154;50.830;12.082;2022-08-19T06:23:13;98952.22;;;26.76;49.51
16100;BME280;8154;50.830;12.082;2022-08-19T06:25:57;98961.56;;;26.74;49.53
16100;BME280;8154;50.830;12.082;2022-08-19T06:28:42;98957.03;;;26.74;49.43
16100;BME280;8154;50.830;12.082;2022-08-19T06:31:30;98964.25;;;26.74;49.58
16100;BME280;8154;50.830;12.082;2022-08-19T06:34:18;98964.25;;;26.74;49.75
16100;BME280;8154;50.830;12.082;2022-08-19T06:37:02;98974.13;;;26.73;49.45
16100;BME280;8154;50.830;12.082;2022-08-19T06:39:48;98976.03;;;26.73;49.54
16100;BME280;8154;50.830;12.082;2022-08-19T06:42:32;98972.75;;;26.71;49.88
16100;BME280;8154;50.830;12.082;2022-08-19T06:45:17;98976.59;;;26.75;49.52
16100;BME280;8154;50.830;12.082;2022-08-19T06:48:02;98981.16;;;26.74;49.41
16100;BME280;8154;50.830;12.082;2022-08-19T06:50:46;98984.63;;;26.75;49.57
16100;BME280;8154;50.830;12.082;2022-08-19T06:53:32;98985.69;;;26.74;49.42
16100;BME280;8154;50.830;12.082;2022-08-19T06:56:20;98988.38;;;26.74;49.56
16100;BME280;8154;50.830;12.082;2022-08-19T06:59:08;98989.44;;;26.73;49.36
16100;BME280;8154;50.830;12.082;2022-08-19T07:01:55;98992.09;;;26.73;49.68
16100;BME280;8154;50.830;12.082;2022-08-19T07:04:39;98998.19;;;26.80;49.36
16100;BME280;8154;50.830;12.082;2022-08-19T07:07:23;98997.56;;;26.78;49.32
16100;BME280;8154;50.830;12.082;2022-08-19T07:10:08;98986.06;;;26.77;49.44
16100;BME280;8154;50.830;12.082;2022-08-19T07:12:52;98989.44;;;26.73;49.58
16100;BME280;8154;50.830;12.082;2022-08-19T07:15:37;98972.88;;;26.76;49.48
16100;BME280;8154;50.830;12.082;2022-08-19T07:18:21;98974.72;;;26.75;49.57
16100;BME280;8154;50.830;12.082;2022-08-19T07:21:12;98982.63;;;26.70;49.69
16100;BME280;8154;50.830;12.082;2022-08-19T07:23:59;98985.09;;;26.72;49.74
16100;BME280;8154;50.830;12.082;2022-08-19T07:26:44;98986.97;;;26.71;49.70
16100;BME280;8154;50.830;12.082;2022-08-19T07:29:30;98987.91;;;26.77;49.61
16100;BME280;8154;50.830;12.082;2022-08-19T07:32:16;98992.22;;;26.78;49.59
16100;BME280;8154;50.830;12.082;2022-08-19T07:35:01;98989.75;;;26.76;49.24
16100;BME280;8154;50.830;12.082;2022-08-19T07:37:47;99000.25;;;26.78;49.62
16100;BME280;8154;50.830;12.082;2022-08-19T07:40:31;99006.53;;;26.72;49.70
16100;BME280;8154;50.830;12.082;2022-08-19T07:43:15;99010.88;;;26.73;49.45
16100;BME280;8154;50.830;12.082;2022-08-19T07:46:00;99007.13;;;26.74;49.58
16100;BME280;8154;50.830;12.082;2022-08-19T07:48:44;99012.50;;;26.74;49.66
16100;BME280;8154;50.830;12.082;2022-08-19T07:51:32;99014.34;;;26.73;49.46
16100;BME280;8154;50.830;12.082;2022-08-19T07:54:19;99020.75;;;26.72;49.82
16100;BME280;8154;50.830;12.082;2022-08-19T07:57:05;99028.66;;;26.67;49.69
16100;BME280;8154;50.830;12.082;2022-08-19T07:59:49;99027.41;;;26.70;49.65
16100;BME280;8154;50.830;12.082;2022-08-19T08:02:34;99035.44;;;26.70;49.56
16100;BME280;8154;50.830;12.082;2022-08-19T08:05:18;99029.03;;;26.71;49.96
16100;BME280;8154;50.830;12.082;2022-08-19T08:08:21;99033.94;;;26.74;49.91
16100;BME280;8154;50.830;12.082;2022-08-19T08:11:23;99037.69;;;26.73;49.58
16100;BME280;8154;50.830;12.082;2022-08-19T08:14:09;99031.50;;;26.72;49.65
16100;BME280;8154;50.830;12.082;2022-08-19T08:16:53;99030.66;;;26.72;49.76
16100;BME280;8154;50.830;12.082;2022-08-19T08:19:39;99032.78;;;26.70;50.02
16100;BME280;8154;50.830;12.082;2022-08-19T08:22:24;99046.75;;;26.72;50.04
16100;BME280;8154;50.830;12.082;2022-08-19T08:25:28;99043.50;;;26.70;49.79
16100;BME280;8154;50.830;12.082;2022-08-19T08:28:12;99040.22;;;26.68;49.57
16100;BME280;8154;50.830;12.082;2022-08-19T08:30:57;99043.56;;;26.63;50.05
16100;BME280;8154;50.830;12.082;2022-08-19T08:33:41;99051.38;;;26.65;49.83
16100;BME280;8154;50.830;12.082;2022-08-19T08:36:26;99057.94;;;26.69;49.77
16100;BME280;8154;50.830;12.082;2022-08-19T08:39:19;99051.53;;;26.70;49.63
16100;BME280;8154;50.830;12.082;2022-08-19T08:45:13;99042.22;;;26.72;49.63
16100;BME280;8154;50.830;12.082;2022-08-19T08:48:04;99041.38;;;26.72;49.69
16100;BME280;8154;50.830;12.082;2022-08-19T08:50:53;99043.03;;;26.73;49.61
16100;BME280;8154;50.830;12.082;2022-08-19T08:53:40;99039.16;;;26.69;49.70
16100;BME280;8154;50.830;12.082;2022-08-19T08:56:26;99038.94;;;26.70;49.79
16100;BME280;8154;50.830;12.082;2022-08-19T08:59:18;99044.75;;;26.67;49.63
16100;BME280;8154;50.830;12.082;2022-08-19T09:02:04;99057.94;;;26.69;49.73
16100;BME280;8154;50.830;12.082;2022-08-19T09:04:48;99057.69;;;26.70;49.79
16100;BME280;8154;50.830;12.082;2022-08-19T09:07:57;99039.75;;;26.71;49.64
16100;BME280;8154;50.830;12.082;2022-08-19T09:10:48;99035.44;;;26.70;49.76
16100;BME280;8154;50.830;12.082;2022-08-19T09:13:52;99038.38;;;26.68;49.96
16100;BME280;8154;50.830;12.082;2022-08-19T09:16:41;99034.63;;;26.69;49.68
16100;BME280;8154;50.830;12.082;2022-08-19T09:19:25;99031.13;;;26.69;49.81
16100;BME280;8154;50.830;12.082;2022-08-19T09:22:09;99027.03;;;26.66;49.66
16100;BME280;8154;50.830;12.082;2022-08-19T09:24:54;99030.78;;;26.65;49.82
16100;BME280;8154;50.830;12.082;2022-08-19T09:27:42;99035.13;;;26.60;49.61
16100;BME280;8154;50.830;12.082;2022-08-19T09:30:29;99046.44;;;26.62;50.02
16100;BME280;8154;50.830;12.082;2022-08-19T09:33:14;99039.25;;;26.62;50.05
16100;BME280;8154;50.830;12.082;2022-08-19T09:36:04;99037.81;;;26.60;49.71
16100;BME280;8154;50.830;12.082;2022-08-19T09:38:51;99048.94;;;26.63;49.59
16100;BME280;8154;50.830;12.082;2022-08-19T09:41:36;99050.19;;;26.61;50.15
16100;BME280;8154;50.830;12.082;2022-08-19T09:44:20;99054.72;;;26.60;49.98
16100;BME280;8154;50.830;12.082;2022-08-19T09:47:05;99046.91;;;26.59;49.59
16100;BME280;8154;50.830;12.082;2022-08-19T09:49:49;99053.75;;;26.55;50.13
16100;BME280;8154;50.830;12.082;2022-08-19T09:52:34;99051.06;;;26.55;50.16
16100;BME280;8154;50.830;12.082;2022-08-19T09:55:20;99050.59;;;26.58;49.71
16100;BME280;8154;50.830;12.082;2022-08-19T09:58:04;99053.38;;;26.51;50.00
16100;BME280;8154;50.830;12.082;2022-08-19T10:00:48;99043.00;;;26.55;50.06
16100;BME280;8154;50.830;12.082;2022-08-19T10:03:34;99051.88;;;26.55;50.18
16100;BME280;8154;50.830;12.082;2022-08-19T10:06:21;99052.09;;;26.54;50.17
16100;BME280;8154;50.830;12.082;2022-08-19T10:09:06;99062.00;;;26.53;50.08
16100;BME280;8154;50.830;12.082;2022-08-19T10:11:52;99070.03;;;26.53;50.05
16100;BME280;8154;50.830;12.082;2022-08-19T10:14:36;99081.38;;;26.55;49.94
16100;BME280;8154;50.830;12.082;2022-08-19T10:17:21;99071.03;;;26.59;49.73
16100;BME280;8154;50.830;12.082;2022-08-19T10:20:05;99076.63;;;26.57;49.93
16100;BME280;8154;50.830;12.082;2022-08-19T10:22:50;99081.59;;;26.54;49.91
16100;BME280;8154;50.830;12.082;2022-08-19T10:25:34;99079.97;;;26.53;49.77
16100;BME280;8154;50.830;12.082;2022-08-19T10:28:19;99081.22;;;26.50;49.58
16100;BME280;8154;50.830;12.082;2022-08-19T10:31:08;99079.38;;;26.51;49.47
16100;BME280;8154;50.830;12.082;2022-08-19T10:33:52;99082.66;;;26.53;49.37
16100;BME280;8154;50.830;12.082;2022-08-19T10:36:41;99082.66;;;26.53;49.38
16100;BME280;8154;50.830;12.082;2022-08-19T10:39:29;99087.63;;;26.49;49.22
16100;BME280;8154;50.830;12.082;2022-08-19T10:42:14;99081.59;;;26.54;48.91
16100;BME280;8154;50.830;12.082;2022-08-19T10:45:00;99086.13;;;26.53;49.24
16100;BME280;8154;50.830;12.082;2022-08-19T10:47:44;99090.25;;;26.56;48.86
16100;BME280;8154;50.830;12.082;2022-08-19T10:50:30;99097.84;;;26.59;48.79
16100;BME280;8154;50.830;12.082;2022-08-19T10:53:33;99105.88;;;26.59;48.69
16100;BME280;8154;50.830;12.082;2022-08-19T10:56:18;99105.72;;;26.54;48.95
16100;BME280;8154;50.830;12.082;2022-08-19T10:59:27;99112.69;;;26.55;48.65
16100;BME280;8154;50.830;12.082;2022-08-19T11:02:13;99113.75;;;26.54;48.49
16100;BME280;8154;50.830;12.082;2022-08-19T11:04:57;99112.13;;;26.53;48.44
16100;BME280;8154;50.830;12.082;2022-08-19T11:07:42;99100.19;;;26.49;48.32
16100;BME280;8154;50.830;12.082;2022-08-19T11:10:26;99107.28;;;26.43;48.39
16100;BME280;8154;50.830;12.082;2022-08-19T11:13:11;99104.38;;;26.45;48.30
16100;BME280;8154;50.830;12.082;2022-08-19T11:15:57;99106.22;;;26.44;47.91
16100;BME280;8154;50.830;12.082;2022-08-19T11:18:45;99108.13;;;26.44;48.15
16100;BME280;8154;50.830;12.082;2022-08-19T11:21:36;99101.09;;;26.43;48.05
16100;BME280;8154;50.830;12.082;2022-08-19T11:24:23;99109.34;;;26.41;47.96
16100;BME280;8154;50.830;12.082;2022-08-19T11:27:09;99101.09;;;26.43;47.97
16100;BME280;8154;50.830;12.082;2022-08-19T11:29:54;99097.63;;;26.42;47.73
16100;BME280;8154;50.830;12.082;2022-08-19T11:32:38;99102.75;;;26.44;47.53
16100;BME280;8154;50.830;12.082;2022-08-19T11:35:23;99095.56;;;26.38;47.84
16100;BME280;8154;50.830;12.082;2022-08-19T11:38:07;99096.41;;;26.38;47.43
16100;BME280;8154;50.830;12.082;2022-08-19T11:40:59;99088.22;;;26.33;47.71
16100;BME280;8154;50.830;12.082;2022-08-19T11:43:43;99095.00;;;26.36;47.67
16100;BME280;8154;50.830;12.082;2022-08-19T11:46:28;99090.44;;;26.36;47.68
16100;BME280;8154;50.830;12.082;2022-08-19T11:49:15;99088.38;;;26.38;47.54
16100;BME280;8154;50.830;12.082;2022-08-19T11:52:00;99084.28;;;26.36;47.84
16100;BME280;8154;50.830;12.082;2022-08-19T11:54:44;99084.63;;;26.39;47.46
16100;BME280;8154;50.830;12.082;2022-08-19T11:57:29;99084.22;;;26.42;47.40
16100;BME280;8154;50.830;12.082;2022-08-19T12:00:14;99077.59;;;26.45;47.65
16100;BME280;8154;50.830;12.082;2022-08-19T12:02:58;99078.19;;;26.47;47.45
16100;BME280;8154;50.830;12.082;2022-08-19T12:05:42;99077.34;;;26.46;47.46
16100;BME280;8154;50.830;12.082;2022-08-19T12:08:27;99085.41;;;26.46;47.47
16100;BME280;8154;50.830;12.082;2022-08-19T12:11:12;99085.63;;;26.45;47.53
16100;BME280;8154;50.830;12.082;2022-08-19T12:13:57;99075.97;;;26.44;47.24
16100;BME280;8154;50.830;12.082;2022-08-19T12:16:44;99080.88;;;26.47;47.47
16100;BME280;8154;50.830;12.082;2022-08-19T12:19:30;99076.53;;;26.46;47.69
16100;BME280;8154;50.830;12.082;2022-08-19T12:22:14;99074.44;;;26.48;47.56
16100;BME280;8154;50.830;12.082;2022-08-19T12:24:59;99073.84;;;26.46;47.51
16100;BME280;8154;50.830;12.082;2022-08-19T12:27:44;99077.59;;;26.45;47.59
16100;BME280;8154;50.830;12.082;2022-08-19T12:30:29;99079.22;;;26.46;47.68
16100;BME280;8154;50.830;12.082;2022-08-19T12:33:14;99081.88;;;26.46;47.74
16100;BME280;8154;50.830;12.082;2022-08-19T12:36:04;99078.63;;;26.44;47.29
16100;BME280;8154;50.830;12.082;2022-08-19T12:38:50;99084.78;;;26.44;48.02
16100;BME280;8154;50.830;12.082;2022-08-19T12:41:34;99085.00;;;26.43;47.82
16100;BME280;8154;50.830;12.082;2022-08-19T12:44:18;99094.72;;;26.44;47.44
16100;BME280;8154;50.830;12.082;2022-08-19T12:47:03;99091.19;;;26.43;47.57
16100;BME280;8154;50.830;12.082;2022-08-19T12:49:48;99090.75;;;26.46;47.71
16100;BME280;8154;50.830;12.082;2022-08-19T12:52:34;99093.22;;;26.48;47.36
16100;BME280;8154;50.830;12.082;2022-08-19T12:55:20;99098.13;;;26.51;47.34
16100;BME280;8154;50.830;12.082;2022-08-19T12:58:05;99098.94;;;26.51;47.60
16100;BME280;8154;50.830;12.082;2022-08-19T13:00:49;99100.19;;;26.49;47.75
16100;BME280;8154;50.830;12.082;2022-08-19T13:03:34;99098.94;;;26.51;47.57
16100;BME280;8154;50.830;12.082;2022-08-19T13:06:18;99103.47;;;26.51;47.56
16100;BME280;8154;50.830;12.082;2022-08-19T13:09:03;99108.84;;;26.51;47.65
16100;BME280;8154;50.830;12.082;2022-08-19T13:11:48;99108.84;;;26.51;47.59
16100;BME280;8154;50.830;12.082;2022-08-19T13:14:34;99111.53;;;26.51;47.58
16100;BME280;8154;50.830;12.082;2022-08-19T13:17:19;99108.41;;;26.54;47.39
16100;BME280;8154;50.830;12.082;2022-08-19T13:20:04;99111.53;;;26.51;47.41
16100;BME280;8154;50.830;12.082;2022-08-19T13:22:51;99111.31;;;26.52;47.46
16100;BME280;8154;50.830;12.082;2022-08-19T13:25:35;99106.31;;;26.56;47.50
16100;BME280;8154;50.830;12.082;2022-08-19T13:28:20;99106.31;;;26.56;47.16
16100;BME280;8154;50.830;12.082;2022-08-19T13:31:04;99105.03;;;26.58;47.13
16100;BME280;8154;50.830;12.082;2022-08-19T13:34:08;99106.31;;;26.56;47.18
16100;BME280;8154;50.830;12.082;2022-08-19T13:36:52;99101.97;;;26.55;47.20
16100;BME280;8154;50.830;12.082;2022-08-19T13:39:37;99098.84;;;26.58;47.18
16100;BME280;8154;50.830;12.082;2022-08-19T13:42:21;99103.41;;;26.57;47.36
16100;BME280;8154;50.830;12.082;2022-08-19T13:45:06;99106.91;;;26.58;47.18
16100;BME280;8154;50.830;12.082;2022-08-19T13:47:52;99098.06;;;26.57;47.09
16100;BME280;8154;50.830;12.082;2022-08-19T13:50:40;99088.97;;;26.58;47.14
16100;BME280;8154;50.830;12.082;2022-08-19T13:53:25;99093.50;;;26.58;47.07
16100;BME280;8154;50.830;12.082;2022-08-19T13:56:14;99089.78;;;26.59;47.03
16100;BME280;8154;50.830;12.082;2022-08-19T13:58:59;99094.31;;;26.58;47.18
16100;BME280;8154;50.830;12.082;2022-08-19T14:01:44;99104.22;;;26.58;47.05
16100;BME280;8154;50.830;12.082;2022-08-19T14:04:29;99106.31;;;26.56;47.07
16100;BME280;8154;50.830;12.082;2022-08-19T14:07:13;99110.41;;;26.58;47.20
16100;BME280;8154;50.830;12.082;2022-08-19T14:09:58;99113.31;;;26.57;47.11
16100;BME280;8154;50.830;12.082;2022-08-19T14:12:42;99118.22;;;26.60;46.97
16100;BME280;8154;50.830;12.082;2022-08-19T14:15:27;99114.53;;;26.61;46.95
16100;BME280;8154;50.830;12.082;2022-08-19T14:18:12;99113.69;;;26.60;46.93
16100;BME280;8154;50.830;12.082;2022-08-19T14:20:56;99107.94;;;26.57;46.90
16100;BME280;8154;50.830;12.082;2022-08-19T14:23:41;99100.97;;;26.56;47.08
16100;BME280;8154;50.830;12.082;2022-08-19T14:26:25;99096.41;;;26.56;47.15
16100;BME280;8154;50.830;12.082;2022-08-19T14:29:09;99098.50;;;26.54;46.99
16100;BME280;8154;50.830;12.082;2022-08-19T14:31:54;99101.75;;;26.56;47.08
16100;BME280;8154;50.830;12.082;2022-08-19T14:34:39;99113.91;;;26.59;47.18
16100;BME280;8154;50.830;12.082;2022-08-19T14:37:24;99111.91;;;26.54;46.90
16100;BME280;8154;50.830;12.082;2022-08-19T14:40:08;99114.34;;;26.56;47.31
16100;BME280;8154;50.830;12.082;2022-08-19T14:42:57;99111.69;;;26.56;46.96